sensor_id;sensor_type;location;lat;lon;timestamp;P1;durP1;ratioP1;P2;durP2;ratioP2
24305;SDS011;12423;48.768;8.850;2023-02-13T00:01:26;546.10;;;107.18;;
24305;SDS011;12423;48.768;8.850;2023-02-13T00:03:27;561.53;;;112.65;;
24305;SDS011;12423;48.768;8.850;2023-02-13T00:05:28;557.25;;;114.32;;
24305;SDS011;12423;48.768;8.850;2023-02-13T00:07:29;547.20;;;105.55;;
24305;SDS011;12423;48.768;8.850;2023-02-13T00:09:30;560.85;;;114.13;;
24305;SDS011;12423;48.768;8.850;2023-02-13T00:11:31;559.17;;;114.75;;
24305;SDS011;12423;48.768;8.850;2023-02-13T00:13:33;554.40;;;113.10;;
24305;SDS011;12423;48.768;8.850;2023-02-13T00:15:34;541.28;;;103.35;;
24305;SDS011;12423;48.768;8.850;2023-02-13T00:17:35;543.80;;;107.10;;
24305;SDS011;12423;48.768;8.850;2023-02-13T00:19:36;549.15;;;109.28;;
24305;SDS011;12423;48.768;8.850;2023-02-13T00:21:37;555.10;;;114.95;;
24305;SDS011;12423;48.768;8.850;2023-02-13T00:23:39;554.63;;;115.35;;
24305;SDS011;12423;48.768;8.850;2023-02-13T00:25:40;542.80;;;105.93;;
24305;SDS011;12423;48.768;8.850;2023-02-13T00:27:41;557.15;;;116.68;;
24305;SDS011;12423;48.768;8.850;2023-02-13T00:29:42;543.83;;;104.68;;
24305;SDS011;12423;48.768;8.850;2023-02-13T00:31:42;548.25;;;106.20;;
24305;SDS011;12423;48.768;8.850;2023-02-13T00:33:43;546.78;;;107.60;;
24305;SDS011;12423;48.768;8.850;2023-02-13T00:35:44;548.60;;;106.82;;
24305;SDS011;12423;48.768;8.850;2023-02-13T00:37:45;551.72;;;109.00;;
24305;SDS011;12423;48.768;8.850;2023-02-13T00:39:46;560.03;;;109.75;;
24305;SDS011;12423;48.768;8.850;2023-02-13T00:41:47;551.50;;;108.60;;
24305;SDS011;12423;48.768;8.850;2023-02-13T00:43:48;551.70;;;109.50;;
24305;SDS011;12423;48.768;8.850;2023-02-13T00:45:50;539.35;;;102.28;;
24305;SDS011;12423;48.768;8.850;2023-02-13T00:47:50;548.40;;;109.60;;
24305;SDS011;12423;48.768;8.850;2023-02-13T00:49:54;550.25;;;113.05;;
24305;SDS011;12423;48.768;8.850;2023-02-13T00:51:55;545.60;;;108.30;;
24305;SDS011;12423;48.768;8.850;2023-02-13T00:53:56;550.50;;;110.03;;
24305;SDS011;12423;48.768;8.850;2023-02-13T00:55:57;549.38;;;110.43;;
24305;SDS011;12423;48.768;8.850;2023-02-13T00:57:58;552.00;;;109.22;;
24305;SDS011;12423;48.768;8.850;2023-02-13T00:59:59;551.13;;;110.82;;
24305;SDS011;12423;48.768;8.850;2023-02-13T01:02:00;537.58;;;101.00;;
24305;SDS011;12423;48.768;8.850;2023-02-13T01:04:01;552.70;;;113.07;;
24305;SDS011;12423;48.768;8.850;2023-02-13T01:06:02;537.15;;;101.90;;
24305;SDS011;12423;48.768;8.850;2023-02-13T01:08:04;550.92;;;108.30;;
24305;SDS011;12423;48.768;8.850;2023-02-13T01:10:07;545.53;;;107.07;;
24305;SDS011;12423;48.768;8.850;2023-02-13T01:12:08;545.20;;;107.28;;
24305;SDS011;12423;48.768;8.850;2023-02-13T01:14:09;545.28;;;107.50;;
24305;SDS011;12423;48.768;8.850;2023-02-13T01:16:10;549.60;;;110.63;;
24305;SDS011;12423;48.768;8.850;2023-02-13T01:18:12;538.65;;;102.03;;
24305;SDS011;12423;48.768;8.850;2023-02-13T01:20:14;550.63;;;108.53;;
24305;SDS011;12423;48.768;8.850;2023-02-13T01:22:15;548.00;;;110.10;;
24305;SDS011;12423;48.768;8.850;2023-02-13T01:24:16;542.42;;;105.05;;
24305;SDS011;12423;48.768;8.850;2023-02-13T01:26:20;548.08;;;110.90;;
24305;SDS011;12423;48.768;8.850;2023-02-13T01:28:24;540.30;;;102.85;;
24305;SDS011;12423;48.768;8.850;2023-02-13T01:30:25;542.10;;;101.68;;
24305;SDS011;12423;48.768;8.850;2023-02-13T01:32:26;552.20;;;107.88;;
24305;SDS011;12423;48.768;8.850;2023-02-13T01:34:27;549.20;;;106.93;;
24305;SDS011;12423;48.768;8.850;2023-02-13T01:36:28;551.47;;;112.25;;
24305;SDS011;12423;48.768;8.850;2023-02-13T01:38:29;548.25;;;107.38;;
24305;SDS011;12423;48.768;8.850;2023-02-13T01:40:30;548.28;;;108.85;;
24305;SDS011;12423;48.768;8.850;2023-02-13T01:42:33;551.80;;;108.38;;
24305;SDS011;12423;48.768;8.850;2023-02-13T01:44:49;548.30;;;106.30;;
24305;SDS011;12423;48.768;8.850;2023-02-13T01:46:53;399.92;;;79.78;;
24305;SDS011;12423;48.768;8.850;2023-02-13T01:48:55;549.10;;;111.40;;
24305;SDS011;12423;48.768;8.850;2023-02-13T01:51:06;550.55;;;110.97;;
24305;SDS011;12423;48.768;8.850;2023-02-13T01:53:13;387.90;;;75.82;;
24305;SDS011;12423;48.768;8.850;2023-02-13T01:55:16;543.95;;;104.18;;
24305;SDS011;12423;48.768;8.850;2023-02-13T01:57:19;532.97;;;100.25;;
24305;SDS011;12423;48.768;8.850;2023-02-13T01:59:25;548.50;;;107.13;;
24305;SDS011;12423;48.768;8.850;2023-02-13T02:01:33;547.05;;;107.93;;
24305;SDS011;12423;48.768;8.850;2023-02-13T02:03:35;552.83;;;109.80;;
24305;SDS011;12423;48.768;8.850;2023-02-13T02:05:44;534.25;;;100.57;;
24305;SDS011;12423;48.768;8.850;2023-02-13T02:07:46;549.03;;;107.18;;
24305;SDS011;12423;48.768;8.850;2023-02-13T02:09:48;535.55;;;101.38;;
24305;SDS011;12423;48.768;8.850;2023-02-13T02:14:14;535.78;;;98.93;;
24305;SDS011;12423;48.768;8.850;2023-02-13T02:16:16;547.17;;;104.93;;
24305;SDS011;12423;48.768;8.850;2023-02-13T02:18:18;532.50;;;98.68;;
24305;SDS011;12423;48.768;8.850;2023-02-13T02:23:03;541.53;;;104.05;;
24305;SDS011;12423;48.768;8.850;2023-02-13T02:34:50;535.42;;;111.75;;
24305;SDS011;12423;48.768;8.850;2023-02-13T02:42:06;536.35;;;116.50;;
24305;SDS011;12423;48.768;8.850;2023-02-13T02:44:25;530.58;;;109.18;;
24305;SDS011;12423;48.768;8.850;2023-02-13T02:46:44;531.72;;;104.22;;
24305;SDS011;12423;48.768;8.850;2023-02-13T02:49:28;547.42;;;127.75;;
24305;SDS011;12423;48.768;8.850;2023-02-13T02:54:13;516.70;;;103.20;;
24305;SDS011;12423;48.768;8.850;2023-02-13T02:56:41;530.65;;;110.43;;
24305;SDS011;12423;48.768;8.850;2023-02-13T02:58:49;538.10;;;106.85;;
24305;SDS011;12423;48.768;8.850;2023-02-13T03:01:14;533.80;;;109.28;;
24305;SDS011;12423;48.768;8.850;2023-02-13T03:03:36;527.40;;;107.85;;
24305;SDS011;12423;48.768;8.850;2023-02-13T03:05:56;526.85;;;105.70;;
24305;SDS011;12423;48.768;8.850;2023-02-13T03:08:13;520.22;;;102.88;;
24305;SDS011;12423;48.768;8.850;2023-02-13T03:10:36;532.25;;;113.03;;
24305;SDS011;12423;48.768;8.850;2023-02-13T03:13:00;532.75;;;102.32;;
24305;SDS011;12423;48.768;8.850;2023-02-13T03:15:21;533.63;;;101.88;;
24305;SDS011;12423;48.768;8.850;2023-02-13T03:17:25;528.38;;;109.55;;
24305;SDS011;12423;48.768;8.850;2023-02-13T03:19:56;514.83;;;101.20;;
24305;SDS011;12423;48.768;8.850;2023-02-13T03:27:13;530.65;;;97.75;;
24305;SDS011;12423;48.768;8.850;2023-02-13T03:32:27;537.72;;;106.18;;
24305;SDS011;12423;48.768;8.850;2023-02-13T03:34:35;522.20;;;103.60;;
24305;SDS011;12423;48.768;8.850;2023-02-13T03:37:00;526.50;;;107.20;;
24305;SDS011;12423;48.768;8.850;2023-02-13T03:39:29;526.65;;;104.85;;
24305;SDS011;12423;48.768;8.850;2023-02-13T03:44:35;524.17;;;103.20;;
24305;SDS011;12423;48.768;8.850;2023-02-13T03:46:46;512.05;;;101.57;;
24305;SDS011;12423;48.768;8.850;2023-02-13T03:48:49;525.83;;;105.82;;
24305;SDS011;12423;48.768;8.850;2023-02-13T03:51:09;517.65;;;102.18;;
24305;SDS011;12423;48.768;8.850;2023-02-13T03:53:14;525.63;;;107.72;;
24305;SDS011;12423;48.768;8.850;2023-02-13T03:55:23;527.95;;;113.93;;
24305;SDS011;12423;48.768;8.850;2023-02-13T03:57:47;527.63;;;107.68;;
24305;SDS011;12423;48.768;8.850;2023-02-13T04:00:13;526.13;;;106.93;;
24305;SDS011;12423;48.768;8.850;2023-02-13T04:02:19;526.13;;;109.53;;
24305;SDS011;12423;48.768;8.850;2023-02-13T04:04:36;530.60;;;111.78;;
24305;SDS011;12423;48.768;8.850;2023-02-13T04:06:48;534.38;;;109.93;;
24305;SDS011;12423;48.768;8.850;2023-02-13T04:08:53;536.70;;;106.75;;
24305;SDS011;12423;48.768;8.850;2023-02-13T04:10:59;525.65;;;109.30;;
24305;SDS011;12423;48.768;8.850;2023-02-13T04:13:10;537.78;;;102.43;;
24305;SDS011;12423;48.768;8.850;2023-02-13T04:15:18;537.55;;;106.30;;
24305;SDS011;12423;48.768;8.850;2023-02-13T04:17:47;539.97;;;103.38;;
24305;SDS011;12423;48.768;8.850;2023-02-13T04:19:50;528.50;;;97.25;;
24305;SDS011;12423;48.768;8.850;2023-02-13T04:21:56;524.83;;;96.38;;
24305;SDS011;12423;48.768;8.850;2023-02-13T04:23:59;535.33;;;104.82;;
24305;SDS011;12423;48.768;8.850;2023-02-13T04:26:01;523.03;;;102.80;;
24305;SDS011;12423;48.768;8.850;2023-02-13T04:28:05;525.00;;;102.43;;
24305;SDS011;12423;48.768;8.850;2023-02-13T04:30:07;513.25;;;98.63;;
24305;SDS011;12423;48.768;8.850;2023-02-13T04:32:09;522.35;;;106.28;;
24305;SDS011;12423;48.768;8.850;2023-02-13T04:34:11;518.90;;;105.68;;
24305;SDS011;12423;48.768;8.850;2023-02-13T04:36:12;519.63;;;103.40;;
24305;SDS011;12423;48.768;8.850;2023-02-13T04:38:12;529.72;;;103.25;;
24305;SDS011;12423;48.768;8.850;2023-02-13T04:40:13;521.78;;;103.75;;
24305;SDS011;12423;48.768;8.850;2023-02-13T04:42:15;528.28;;;110.15;;
24305;SDS011;12423;48.768;8.850;2023-02-13T04:44:15;519.10;;;97.20;;
24305;SDS011;12423;48.768;8.850;2023-02-13T04:46:17;521.45;;;93.97;;
24305;SDS011;12423;48.768;8.850;2023-02-13T04:48:18;534.22;;;101.55;;
24305;SDS011;12423;48.768;8.850;2023-02-13T04:50:19;537.08;;;103.53;;
24305;SDS011;12423;48.768;8.850;2023-02-13T04:52:21;531.83;;;99.57;;
24305;SDS011;12423;48.768;8.850;2023-02-13T04:54:22;530.03;;;99.70;;
24305;SDS011;12423;48.768;8.850;2023-02-13T04:56:23;529.88;;;99.85;;
24305;SDS011;12423;48.768;8.850;2023-02-13T04:58:23;533.03;;;101.15;;
24305;SDS011;12423;48.768;8.850;2023-02-13T05:00:25;530.50;;;100.13;;
24305;SDS011;12423;48.768;8.850;2023-02-13T05:02:27;530.05;;;100.22;;
24305;SDS011;12423;48.768;8.850;2023-02-13T05:04:28;517.28;;;95.15;;
24305;SDS011;12423;48.768;8.850;2023-02-13T05:06:29;534.40;;;104.20;;
24305;SDS011;12423;48.768;8.850;2023-02-13T05:08:30;528.03;;;100.10;;
24305;SDS011;12423;48.768;8.850;2023-02-13T05:10:31;522.55;;;98.57;;
24305;SDS011;12423;48.768;8.850;2023-02-13T05:12:33;527.08;;;97.95;;
24305;SDS011;12423;48.768;8.850;2023-02-13T05:14:34;530.33;;;101.68;;
24305;SDS011;12423;48.768;8.850;2023-02-13T05:16:35;530.13;;;103.35;;
24305;SDS011;12423;48.768;8.850;2023-02-13T05:18:36;527.67;;;101.15;;
24305;SDS011;12423;48.768;8.850;2023-02-13T05:20:37;532.13;;;105.65;;
24305;SDS011;12423;48.768;8.850;2023-02-13T05:22:48;528.83;;;101.25;;
24305;SDS011;12423;48.768;8.850;2023-02-13T05:25:26;524.22;;;96.05;;
24305;SDS011;12423;48.768;8.850;2023-02-13T05:27:27;526.13;;;97.82;;
24305;SDS011;12423;48.768;8.850;2023-02-13T05:29:28;529.13;;;99.72;;
24305;SDS011;12423;48.768;8.850;2023-02-13T05:31:29;520.60;;;99.32;;
24305;SDS011;12423;48.768;8.850;2023-02-13T05:33:30;518.55;;;95.80;;
24305;SDS011;12423;48.768;8.850;2023-02-13T05:35:31;532.92;;;103.10;;
24305;SDS011;12423;48.768;8.850;2023-02-13T05:37:31;529.03;;;100.13;;
24305;SDS011;12423;48.768;8.850;2023-02-13T05:39:32;524.10;;;96.45;;
24305;SDS011;12423;48.768;8.850;2023-02-13T05:41:33;524.35;;;96.55;;
24305;SDS011;12423;48.768;8.850;2023-02-13T05:43:34;521.90;;;95.90;;
24305;SDS011;12423;48.768;8.850;2023-02-13T05:45:35;531.25;;;101.03;;
24305;SDS011;12423;48.768;8.850;2023-02-13T05:47:36;525.00;;;98.72;;
24305;SDS011;12423;48.768;8.850;2023-02-13T05:49:37;537.90;;;108.00;;
24305;SDS011;12423;48.768;8.850;2023-02-13T05:51:38;519.22;;;97.53;;
24305;SDS011;12423;48.768;8.850;2023-02-13T05:53:39;530.97;;;102.80;;
24305;SDS011;12423;48.768;8.850;2023-02-13T05:55:40;520.22;;;96.15;;
24305;SDS011;12423;48.768;8.850;2023-02-13T05:57:41;517.35;;;95.63;;
24305;SDS011;12423;48.768;8.850;2023-02-13T05:59:42;522.20;;;97.03;;
24305;SDS011;12423;48.768;8.850;2023-02-13T06:01:43;522.28;;;98.32;;
24305;SDS011;12423;48.768;8.850;2023-02-13T06:03:44;525.50;;;99.35;;
24305;SDS011;12423;48.768;8.850;2023-02-13T06:05:45;530.65;;;100.97;;
24305;SDS011;12423;48.768;8.850;2023-02-13T06:07:46;529.08;;;98.22;;
24305;SDS011;12423;48.768;8.850;2023-02-13T06:09:47;529.50;;;99.65;;
24305;SDS011;12423;48.768;8.850;2023-02-13T06:11:48;516.63;;;90.57;;
24305;SDS011;12423;48.768;8.850;2023-02-13T06:13:49;520.47;;;92.93;;
24305;SDS011;12423;48.768;8.850;2023-02-13T06:15:51;534.58;;;100.10;;
24305;SDS011;12423;48.768;8.850;2023-02-13T06:17:52;530.08;;;100.32;;
24305;SDS011;12423;48.768;8.850;2023-02-13T06:19:53;534.95;;;102.32;;
24305;SDS011;12423;48.768;8.850;2023-02-13T06:21:54;522.17;;;95.72;;
24305;SDS011;12423;48.768;8.850;2023-02-13T06:23:55;521.03;;;96.80;;
24305;SDS011;12423;48.768;8.850;2023-02-13T06:25:56;532.97;;;100.63;;
24305;SDS011;12423;48.768;8.850;2023-02-13T06:28:02;533.17;;;100.88;;
24305;SDS011;12423;48.768;8.850;2023-02-13T06:30:04;536.35;;;99.57;;
24305;SDS011;12423;48.768;8.850;2023-02-13T06:32:06;529.88;;;98.78;;
24305;SDS011;12423;48.768;8.850;2023-02-13T06:34:06;532.75;;;99.60;;
24305;SDS011;12423;48.768;8.850;2023-02-13T06:36:07;533.22;;;99.75;;
24305;SDS011;12423;48.768;8.850;2023-02-13T06:38:08;525.30;;;99.35;;
24305;SDS011;12423;48.768;8.850;2023-02-13T06:40:10;529.45;;;102.00;;
24305;SDS011;12423;48.768;8.850;2023-02-13T06:42:12;522.15;;;98.68;;
24305;SDS011;12423;48.768;8.850;2023-02-13T06:44:13;535.33;;;103.85;;
24305;SDS011;12423;48.768;8.850;2023-02-13T06:46:14;528.72;;;99.32;;
24305;SDS011;12423;48.768;8.850;2023-02-13T06:48:15;528.20;;;97.72;;
24305;SDS011;12423;48.768;8.850;2023-02-13T06:50:16;530.83;;;101.50;;
24305;SDS011;12423;48.768;8.850;2023-02-13T06:52:18;531.10;;;99.32;;
24305;SDS011;12423;48.768;8.850;2023-02-13T06:54:19;527.33;;;100.35;;
24305;SDS011;12423;48.768;8.850;2023-02-13T06:56:20;533.08;;;103.75;;
24305;SDS011;12423;48.768;8.850;2023-02-13T06:58:21;521.97;;;95.60;;
24305;SDS011;12423;48.768;8.850;2023-02-13T07:00:24;527.58;;;99.63;;
24305;SDS011;12423;48.768;8.850;2023-02-13T07:02:26;519.00;;;97.60;;
24305;SDS011;12423;48.768;8.850;2023-02-13T07:04:27;523.88;;;96.72;;
24305;SDS011;12423;48.768;8.850;2023-02-13T07:06:28;530.85;;;100.15;;
24305;SDS011;12423;48.768;8.850;2023-02-13T07:08:29;530.13;;;99.55;;
24305;SDS011;12423;48.768;8.850;2023-02-13T07:10:30;532.13;;;101.60;;
24305;SDS011;12423;48.768;8.850;2023-02-13T07:12:32;529.75;;;100.72;;
24305;SDS011;12423;48.768;8.850;2023-02-13T07:14:34;534.38;;;103.60;;
24305;SDS011;12423;48.768;8.850;2023-02-13T07:16:35;522.50;;;99.15;;
24305;SDS011;12423;48.768;8.850;2023-02-13T07:18:36;531.67;;;101.70;;
24305;SDS011;12423;48.768;8.850;2023-02-13T07:20:37;531.08;;;103.05;;
24305;SDS011;12423;48.768;8.850;2023-02-13T07:22:38;530.22;;;100.63;;
24305;SDS011;12423;48.768;8.850;2023-02-13T07:24:39;534.00;;;102.88;;
24305;SDS011;12423;48.768;8.850;2023-02-13T07:26:40;531.78;;;102.53;;
24305;SDS011;12423;48.768;8.850;2023-02-13T07:28:41;544.53;;;104.05;;
24305;SDS011;12423;48.768;8.850;2023-02-13T07:30:42;539.42;;;107.22;;
24305;SDS011;12423;48.768;8.850;2023-02-13T07:32:43;531.47;;;100.18;;
24305;SDS011;12423;48.768;8.850;2023-02-13T07:34:44;533.33;;;102.80;;
24305;SDS011;12423;48.768;8.850;2023-02-13T07:36:45;537.08;;;103.40;;
24305;SDS011;12423;48.768;8.850;2023-02-13T07:38:46;536.88;;;105.70;;
24305;SDS011;12423;48.768;8.850;2023-02-13T07:40:47;536.78;;;104.97;;
24305;SDS011;12423;48.768;8.850;2023-02-13T07:42:48;537.13;;;106.65;;
24305;SDS011;12423;48.768;8.850;2023-02-13T07:44:49;538.67;;;105.28;;
24305;SDS011;12423;48.768;8.850;2023-02-13T07:46:50;519.40;;;95.47;;
24305;SDS011;12423;48.768;8.850;2023-02-13T07:48:51;534.67;;;102.88;;
24305;SDS011;12423;48.768;8.850;2023-02-13T07:50:52;539.05;;;105.05;;
24305;SDS011;12423;48.768;8.850;2023-02-13T07:52:59;542.28;;;106.40;;
24305;SDS011;12423;48.768;8.850;2023-02-13T07:55:01;536.80;;;102.88;;
24305;SDS011;12423;48.768;8.850;2023-02-13T07:57:02;539.63;;;107.35;;
24305;SDS011;12423;48.768;8.850;2023-02-13T07:59:03;537.53;;;103.72;;
24305;SDS011;12423;48.768;8.850;2023-02-13T08:01:05;540.30;;;108.57;;
24305;SDS011;12423;48.768;8.850;2023-02-13T08:03:11;544.63;;;110.32;;
24305;SDS011;12423;48.768;8.850;2023-02-13T08:05:12;534.53;;;102.03;;
24305;SDS011;12423;48.768;8.850;2023-02-13T08:07:14;538.50;;;106.35;;
24305;SDS011;12423;48.768;8.850;2023-02-13T08:09:17;537.30;;;105.45;;
24305;SDS011;12423;48.768;8.850;2023-02-13T08:11:38;539.30;;;104.25;;
24305;SDS011;12423;48.768;8.850;2023-02-13T08:13:55;532.58;;;109.30;;
24305;SDS011;12423;48.768;8.850;2023-02-13T08:15:56;536.58;;;106.57;;
24305;SDS011;12423;48.768;8.850;2023-02-13T08:17:57;547.30;;;111.47;;
24305;SDS011;12423;48.768;8.850;2023-02-13T08:19:58;541.38;;;107.22;;
24305;SDS011;12423;48.768;8.850;2023-02-13T08:21:58;545.35;;;109.38;;
24305;SDS011;12423;48.768;8.850;2023-02-13T08:24:01;547.40;;;111.32;;
24305;SDS011;12423;48.768;8.850;2023-02-13T08:26:02;545.92;;;109.65;;
24305;SDS011;12423;48.768;8.850;2023-02-13T08:28:03;543.80;;;108.68;;
24305;SDS011;12423;48.768;8.850;2023-02-13T08:30:05;550.25;;;112.55;;
24305;SDS011;12423;48.768;8.850;2023-02-13T08:32:06;535.40;;;104.38;;
24305;SDS011;12423;48.768;8.850;2023-02-13T08:34:07;549.33;;;112.05;;
24305;SDS011;12423;48.768;8.850;2023-02-13T08:36:08;551.75;;;113.93;;
24305;SDS011;12423;48.768;8.850;2023-02-13T08:38:09;549.90;;;111.63;;
24305;SDS011;12423;48.768;8.850;2023-02-13T08:40:10;551.85;;;112.30;;
24305;SDS011;12423;48.768;8.850;2023-02-13T08:42:12;537.47;;;104.82;;
24305;SDS011;12423;48.768;8.850;2023-02-13T08:44:13;552.70;;;113.15;;
24305;SDS011;12423;48.768;8.850;2023-02-13T08:46:14;539.72;;;106.90;;
24305;SDS011;12423;48.768;8.850;2023-02-13T08:48:16;551.35;;;115.65;;
24305;SDS011;12423;48.768;8.850;2023-02-13T08:50:17;554.35;;;119.45;;
24305;SDS011;12423;48.768;8.850;2023-02-13T08:52:17;553.47;;;112.88;;
24305;SDS011;12423;48.768;8.850;2023-02-13T08:54:18;556.00;;;118.95;;
24305;SDS011;12423;48.768;8.850;2023-02-13T08:56:19;555.63;;;117.18;;
24305;SDS011;12423;48.768;8.850;2023-02-13T08:58:20;555.33;;;116.65;;
24305;SDS011;12423;48.768;8.850;2023-02-13T09:00:22;560.17;;;121.05;;
24305;SDS011;12423;48.768;8.850;2023-02-13T09:02:23;549.17;;;111.05;;
24305;SDS011;12423;48.768;8.850;2023-02-13T09:04:23;563.63;;;125.93;;
24305;SDS011;12423;48.768;8.850;2023-02-13T09:06:25;570.25;;;129.30;;
24305;SDS011;12423;48.768;8.850;2023-02-13T09:08:26;556.92;;;121.93;;
24305;SDS011;12423;48.768;8.850;2023-02-13T09:10:28;561.22;;;126.55;;
24305;SDS011;12423;48.768;8.850;2023-02-13T09:12:31;573.75;;;138.90;;
24305;SDS011;12423;48.768;8.850;2023-02-13T09:14:32;570.38;;;131.00;;
24305;SDS011;12423;48.768;8.850;2023-02-13T09:16:34;571.42;;;134.50;;
24305;SDS011;12423;48.768;8.850;2023-02-13T09:18:35;572.80;;;134.52;;
24305;SDS011;12423;48.768;8.850;2023-02-13T09:20:36;582.85;;;144.48;;
24305;SDS011;12423;48.768;8.850;2023-02-13T09:22:37;575.75;;;139.63;;
24305;SDS011;12423;48.768;8.850;2023-02-13T09:24:38;579.80;;;139.48;;
24305;SDS011;12423;48.768;8.850;2023-02-13T09:26:39;577.15;;;138.15;;
24305;SDS011;12423;48.768;8.850;2023-02-13T09:28:40;574.50;;;132.93;;
24305;SDS011;12423;48.768;8.850;2023-02-13T09:30:41;584.83;;;147.73;;
24305;SDS011;12423;48.768;8.850;2023-02-13T09:32:42;575.30;;;131.98;;
24305;SDS011;12423;48.768;8.850;2023-02-13T09:34:43;580.03;;;139.35;;
24305;SDS011;12423;48.768;8.850;2023-02-13T09:36:44;570.92;;;130.18;;
24305;SDS011;12423;48.768;8.850;2023-02-13T09:38:52;573.40;;;134.30;;
24305;SDS011;12423;48.768;8.850;2023-02-13T09:45:27;569.72;;;130.98;;
24305;SDS011;12423;48.768;8.850;2023-02-13T09:47:31;582.85;;;147.80;;
24305;SDS011;12423;48.768;8.850;2023-02-13T09:49:36;595.58;;;153.05;;
24305;SDS011;12423;48.768;8.850;2023-02-13T09:51:44;590.25;;;156.10;;
24305;SDS011;12423;48.768;8.850;2023-02-13T09:58:33;590.30;;;153.55;;
24305;SDS011;12423;48.768;8.850;2023-02-13T10:00:43;594.10;;;155.38;;
24305;SDS011;12423;48.768;8.850;2023-02-13T10:16:21;592.95;;;155.27;;
24305;SDS011;12423;48.768;8.850;2023-02-13T10:18:28;591.80;;;158.70;;
24305;SDS011;12423;48.768;8.850;2023-02-13T10:20:43;592.17;;;158.23;;
24305;SDS011;12423;48.768;8.850;2023-02-13T10:22:48;593.88;;;162.70;;
24305;SDS011;12423;48.768;8.850;2023-02-13T10:25:39;591.97;;;168.00;;
24305;SDS011;12423;48.768;8.850;2023-02-13T10:32:03;587.67;;;155.52;;
24305;SDS011;12423;48.768;8.850;2023-02-13T10:34:13;582.25;;;146.55;;
24305;SDS011;12423;48.768;8.850;2023-02-13T10:36:18;590.53;;;159.07;;
24305;SDS011;12423;48.768;8.850;2023-02-13T10:38:26;593.72;;;159.27;;
24305;SDS011;12423;48.768;8.850;2023-02-13T10:40:31;598.38;;;165.35;;
24305;SDS011;12423;48.768;8.850;2023-02-13T10:42:42;598.72;;;173.07;;
24305;SDS011;12423;48.768;8.850;2023-02-13T10:44:55;594.35;;;163.95;;
24305;SDS011;12423;48.768;8.850;2023-02-13T10:47:23;591.83;;;164.82;;
24305;SDS011;12423;48.768;8.850;2023-02-13T10:50:09;591.88;;;162.63;;
24305;SDS011;12423;48.768;8.850;2023-02-13T10:57:32;581.83;;;145.90;;
24305;SDS011;12423;48.768;8.850;2023-02-13T11:00:00;600.05;;;167.75;;
24305;SDS011;12423;48.768;8.850;2023-02-13T11:02:12;607.47;;;185.23;;
24305;SDS011;12423;48.768;8.850;2023-02-13T11:04:18;600.40;;;183.35;;
24305;SDS011;12423;48.768;8.850;2023-02-13T11:06:19;596.47;;;175.50;;
24305;SDS011;12423;48.768;8.850;2023-02-13T11:08:24;600.10;;;171.35;;
24305;SDS011;12423;48.768;8.850;2023-02-13T11:10:32;604.45;;;193.02;;
24305;SDS011;12423;48.768;8.850;2023-02-13T11:12:33;604.63;;;184.20;;
24305;SDS011;12423;48.768;8.850;2023-02-13T11:14:34;611.88;;;204.13;;
24305;SDS011;12423;48.768;8.850;2023-02-13T11:18:50;608.50;;;198.35;;
24305;SDS011;12423;48.768;8.850;2023-02-13T11:21:01;600.15;;;174.65;;
24305;SDS011;12423;48.768;8.850;2023-02-13T11:25:29;615.90;;;218.25;;
24305;SDS011;12423;48.768;8.850;2023-02-13T11:27:32;620.20;;;223.20;;
24305;SDS011;12423;48.768;8.850;2023-02-13T11:29:36;630.60;;;253.13;;
24305;SDS011;12423;48.768;8.850;2023-02-13T11:31:37;649.28;;;312.65;;
24305;SDS011;12423;48.768;8.850;2023-02-13T11:33:39;662.95;;;373.92;;
24305;SDS011;12423;48.768;8.850;2023-02-13T11:35:41;678.22;;;437.27;;
24305;SDS011;12423;48.768;8.850;2023-02-13T11:37:42;688.35;;;496.55;;
24305;SDS011;12423;48.768;8.850;2023-02-13T11:39:44;714.80;;;606.83;;
24305;SDS011;12423;48.768;8.850;2023-02-13T11:41:47;770.38;;;688.28;;
24305;SDS011;12423;48.768;8.850;2023-02-13T11:43:53;842.33;;;758.35;;
24305;SDS011;12423;48.768;8.850;2023-02-13T11:46:07;911.47;;;824.80;;
24305;SDS011;12423;48.768;8.850;2023-02-13T11:48:14;908.05;;;821.78;;
24305;SDS011;12423;48.768;8.850;2023-02-13T11:50:26;947.67;;;860.25;;
24305;SDS011;12423;48.768;8.850;2023-02-13T11:52:32;932.78;;;847.53;;
24305;SDS011;12423;48.768;8.850;2023-02-13T11:54:37;1000.33;;;912.75;;
24305;SDS011;12423;48.768;8.850;2023-02-13T11:56:48;959.08;;;873.90;;
24305;SDS011;12423;48.768;8.850;2023-02-13T11:58:59;1053.88;;;962.75;;
24305;SDS011;12423;48.768;8.850;2023-02-13T12:05:24;1015.53;;;926.78;;
24305;SDS011;12423;48.768;8.850;2023-02-13T12:07:30;1013.67;;;926.15;;
24305;SDS011;12423;48.768;8.850;2023-02-13T12:09:32;1060.57;;;970.80;;
24305;SDS011;12423;48.768;8.850;2023-02-13T12:11:35;1066.28;;;976.13;;
24305;SDS011;12423;48.768;8.850;2023-02-13T12:13:42;1082.15;;;990.60;;
24305;SDS011;12423;48.768;8.850;2023-02-13T12:15:43;1047.20;;;956.47;;
24305;SDS011;12423;48.768;8.850;2023-02-13T12:17:48;1096.82;;;998.58;;
24305;SDS011;12423;48.768;8.850;2023-02-13T12:19:59;1097.13;;;998.53;;
24305;SDS011;12423;48.768;8.850;2023-02-13T12:26:43;1079.88;;;988.60;;
24305;SDS011;12423;48.768;8.850;2023-02-13T12:29:03;1065.65;;;975.35;;
24305;SDS011;12423;48.768;8.850;2023-02-13T12:39:03;1012.58;;;925.30;;
24305;SDS011;12423;48.768;8.850;2023-02-13T12:41:16;1025.85;;;937.67;;
24305;SDS011;12423;48.768;8.850;2023-02-13T12:45:57;1090.43;;;996.50;;
24305;SDS011;12423;48.768;8.850;2023-02-13T12:54:10;1029.90;;;941.65;;
24305;SDS011;12423;48.768;8.850;2023-02-13T12:58:25;1022.03;;;934.33;;
24305;SDS011;12423;48.768;8.850;2023-02-13T13:03:15;1026.63;;;938.90;;
24305;SDS011;12423;48.768;8.850;2023-02-13T13:17:15;1070.32;;;980.60;;
24305;SDS011;12423;48.768;8.850;2023-02-13T13:21:57;1046.10;;;957.03;;
24305;SDS011;12423;48.768;8.850;2023-02-13T13:26:41;1107.18;;;999.90;;
24305;SDS011;12423;48.768;8.850;2023-02-13T13:28:47;1096.22;;;998.60;;
24305;SDS011;12423;48.768;8.850;2023-02-13T13:30:52;1097.03;;;998.55;;
24305;SDS011;12423;48.768;8.850;2023-02-13T13:33:04;1098.35;;;999.10;;
24305;SDS011;12423;48.768;8.850;2023-02-13T13:35:14;1053.95;;;962.80;;
24305;SDS011;12423;48.768;8.850;2023-02-13T13:37:21;1045.90;;;955.50;;
24305;SDS011;12423;48.768;8.850;2023-02-13T13:49:05;1078.03;;;986.55;;
24305;SDS011;12423;48.768;8.850;2023-02-13T13:51:28;1050.20;;;960.53;;
24305;SDS011;12423;48.768;8.850;2023-02-13T13:53:30;1030.22;;;942.10;;
24305;SDS011;12423;48.768;8.850;2023-02-13T13:56:05;1084.47;;;992.65;;
24305;SDS011;12423;48.768;8.850;2023-02-13T13:58:00;1086.55;;;994.22;;